Time;durP1;ratioP1;P1;durP2;ratioP2;P2;SDS_P1;SDS_P2;PMS_P1;PMS_P2;Temp;Humidity;BMP_temperature;BMP_pressure;BME280_temperature;BME280_humidity;BME280_pressure;Samples;Min_cycle;Max_cycle;Signal;HPM_P1;HPM_P2
2022/04/26 03:36:47;;;;;;;32.93;25.93;;;;;;;;;;5023090;28;20198;-82
2022/04/26 03:39:13;;;;;;;33.60;25.27;;;;;;;;;;5028474;28;20907;-80
2022/04/26 03:41:39;;;;;;;31.53;23.70;;;;;;;;;;5028187;28;20423;-81
2022/04/26 03:44:05;;;;;;;32.57;24.70;;;;;;;;;;5010571;28;20982;-80
2022/04/26 03:46:31;;;;;;;34.03;24.03;;;;;;;;;;5029632;28;20514;-80
2022/04/26 03:48:57;;;;;;;33.70;24.93;;;;;;;;;;5028491;28;20979;-81
2022/04/26 03:51:23;;;;;;;27.70;23.63;;;;;;;;;;5009381;28;20430;-81
2022/04/26 03:53:49;;;;;;;32.50;23.10;;;;;;;;;;5010933;28;20429;-80
2022/04/26 03:56:15;;;;;;;29.17;22.60;;;;;;;;;;5027055;28;21057;-80
2022/04/26 03:58:41;;;;;;;27.63;22.97;;;;;;;;;;5010712;28;20849;-81
2022/04/26 04:01:07;;;;;;;27.60;21.07;;;;;;;;;;5026944;28;20469;-81
2022/04/26 04:03:36;;;;;;;28.97;22.03;;;;;;;;;;5010884;28;20461;-79
2022/04/26 04:06:02;;;;;;;24.60;21.27;;;;;;;;;;5024110;28;20481;-79
2022/04/26 04:08:28;;;;;;;28.47;22.63;;;;;;;;;;5029123;28;20423;-80
2022/04/26 04:10:54;;;;;;;28.27;21.67;;;;;;;;;;5024353;28;20446;-80
2022/04/26 04:13:21;;;;;;;29.67;20.90;;;;;;;;;;5029693;28;20511;-80
2022/04/26 04:15:47;;;;;;;24.90;20.50;;;;;;;;;;5041022;28;20425;-80
2022/04/26 04:20:58;;;;;;;31.00;21.10;;;;;;;;;;5038916;28;20514;-80
2022/04/26 04:23:24;;;;;;;22.43;20.00;;;;;;;;;;5028073;28;20509;-80
2022/04/26 04:25:50;;;;;;;22.43;18.67;;;;;;;;;;5026631;28;20987;-80
2022/04/26 04:28:16;;;;;;;24.20;19.13;;;;;;;;;;5028715;28;20444;-80
2022/04/26 04:30:42;;;;;;;29.07;19.73;;;;;;;;;;5022506;28;20520;-80
2022/04/26 04:33:08;;;;;;;23.77;17.73;;;;;;;;;;5023579;28;20435;-80
2022/04/26 04:35:35;;;;;;;19.67;17.13;;;;;;;;;;5037913;28;20457;-80
2022/04/26 04:38:01;;;;;;;25.70;19.13;;;;;;;;;;5028454;28;20935;-80
2022/04/26 04:40:27;;;;;;;23.73;18.00;;;;;;;;;;5022733;28;20431;-79
2022/04/26 04:42:53;;;;;;;19.33;16.40;;;;;;;;;;5027766;28;20939;-80
2022/04/26 04:45:19;;;;;;;21.17;17.23;;;;;;;;;;5027063;28;20470;-79
2022/04/26 04:47:45;;;;;;;22.67;17.03;;;;;;;;;;5027578;28;20431;-78
2022/04/26 04:50:11;;;;;;;21.03;17.50;;;;;;;;;;5026251;28;20431;-79
2022/04/26 04:52:37;;;;;;;23.07;17.50;;;;;;;;;;5027751;28;20434;-79
2022/04/26 04:55:04;;;;;;;21.10;16.20;;;;;;;;;;5026367;28;20466;-80
2022/04/26 04:57:30;;;;;;;19.80;17.50;;;;;;;;;;5019368;28;20960;-80
2022/04/26 04:59:56;;;;;;;22.50;17.60;;;;;;;;;;5025591;28;20501;-80
2022/04/26 05:02:22;;;;;;;19.27;16.90;;;;;;;;;;5027795;28;20601;-80
2022/04/26 05:04:49;;;;;;;19.67;16.70;;;;;;;;;;5008734;28;20989;-80
2022/04/26 05:07:15;;;;;;;17.40;15.40;;;;;;;;;;5027058;28;20509;-80
2022/04/26 05:09:41;;;;;;;21.13;16.57;;;;;;;;;;5026926;28;20776;-78
2022/04/26 05:12:08;;;;;;;15.97;14.27;;;;;;;;;;5039171;28;20831;-80
2022/04/26 05:14:34;;;;;;;15.60;14.00;;;;;;;;;;5009663;28;20594;-81
2022/04/26 05:17:00;;;;;;;19.50;14.50;;;;;;;;;;5043615;28;20557;-80
2022/04/26 05:19:26;;;;;;;16.23;14.50;;;;;;;;;;5027646;28;20876;-80
2022/04/26 05:21:52;;;;;;;17.30;14.53;;;;;;;;;;5032703;28;21088;-78
2022/04/26 05:27:03;;;;;;;17.43;13.93;;;;;;;;;;5026833;28;20796;-80
2022/04/26 05:29:29;;;;;;;18.53;15.40;;;;;;;;;;5027550;28;20518;-80
2022/04/26 05:31:55;;;;;;;18.77;14.50;;;;;;;;;;5025554;28;20488;-80
2022/04/26 05:34:21;;;;;;;18.83;14.13;;;;;;;;;;5027484;28;20820;-79
2022/04/26 05:36:47;;;;;;;19.90;14.53;;;;;;;;;;5031992;28;20526;-79
2022/04/26 05:39:13;;;;;;;14.80;13.20;;;;;;;;;;5027685;28;20550;-80
2022/04/26 05:41:40;;;;;;;20.17;14.83;;;;;;;;;;5040874;28;20454;-80
2022/04/26 05:44:06;;;;;;;18.20;16.00;;;;;;;;;;5026318;28;21228;-81
2022/04/26 05:46:32;;;;;;;16.03;14.37;;;;;;;;;;5026821;28;20442;-79
2022/04/26 05:48:58;;;;;;;17.70;15.27;;;;;;;;;;5027629;28;20434;-78
2022/04/26 05:51:24;;;;;;;16.57;14.77;;;;;;;;;;5038452;28;20445;-80
2022/04/26 05:53:50;;;;;;;17.23;15.27;;;;;;;;;;5026709;28;20427;-77
2022/04/26 05:56:16;;;;;;;21.93;14.70;;;;;;;;;;5033819;28;20490;-79
2022/04/26 05:58:42;;;;;;;21.03;16.40;;;;;;;;;;5025961;28;20453;-79
2022/04/26 06:01:08;;;;;;;21.83;17.70;;;;;;;;;;5025126;28;20430;-79
2022/04/26 06:03:34;;;;;;;21.83;17.17;;;;;;;;;;5008733;28;20525;-79
2022/04/26 06:06:00;;;;;;;20.77;17.73;;;;;;;;;;5016294;28;20827;-79
2022/04/26 06:08:26;;;;;;;16.60;14.90;;;;;;;;;;5025995;28;20435;-79
2022/04/26 06:10:52;;;;;;;20.83;15.23;;;;;;;;;;5024664;28;20457;-82
2022/04/26 06:13:18;;;;;;;19.00;14.90;;;;;;;;;;5020342;28;20494;-80
2022/04/26 06:15:44;;;;;;;16.90;14.23;;;;;;;;;;5027557;28;20533;-81
2022/04/26 06:18:10;;;;;;;16.60;14.10;;;;;;;;;;5018169;28;20423;-81
2022/04/26 06:20:36;;;;;;;18.10;16.20;;;;;;;;;;5025933;28;20476;-81
2022/04/26 06:23:02;;;;;;;19.00;17.00;;;;;;;;;;4316071;28;10000797;-79
2022/04/26 06:25:28;;;;;;;18.80;16.30;;;;;;;;;;5023827;28;20207;-79
2022/04/26 06:27:54;;;;;;;26.03;18.50;;;;;;;;;;5005009;28;20817;-76
2022/04/26 06:30:20;;;;;;;20.80;18.37;;;;;;;;;;5025414;28;20433;-80
2022/04/26 06:32:46;;;;;;;24.03;18.57;;;;;;;;;;5004354;28;20510;-79
2022/04/26 06:35:12;;;;;;;25.10;18.30;;;;;;;;;;5024313;28;20962;-79
2022/04/26 06:37:38;;;;;;;20.10;17.67;;;;;;;;;;5006265;28;20646;-80
2022/04/26 06:40:05;;;;;;;26.30;17.40;;;;;;;;;;5024092;28;20991;-80
2022/04/26 06:42:31;;;;;;;24.20;18.00;;;;;;;;;;5003493;28;20927;-80
2022/04/26 06:44:57;;;;;;;21.50;17.43;;;;;;;;;;5005674;28;20474;-79
2022/04/26 06:47:23;;;;;;;18.37;16.27;;;;;;;;;;5005337;28;20504;-79
2022/04/26 06:49:49;;;;;;;29.60;18.80;;;;;;;;;;5026225;28;20517;-81
2022/04/26 06:52:15;;;;;;;22.20;17.50;;;;;;;;;;5009817;28;20430;-80
2022/04/26 06:54:41;;;;;;;22.87;16.40;;;;;;;;;;5007303;28;20462;-80
2022/04/26 06:57:07;;;;;;;27.83;18.83;;;;;;;;;;5026816;28;20433;-80
2022/04/26 06:59:33;;;;;;;31.97;21.63;;;;;;;;;;5008197;28;20813;-78
2022/04/26 07:01:59;;;;;;;29.00;21.33;;;;;;;;;;5028431;28;20511;-80
2022/04/26 07:04:26;;;;;;;27.63;21.23;;;;;;;;;;5007874;28;20501;-79
2022/04/26 07:06:52;;;;;;;22.17;19.70;;;;;;;;;;5026884;28;20751;-81
2022/04/26 07:09:19;;;;;;;26.40;19.90;;;;;;;;;;5012210;28;20450;-80
2022/04/26 07:11:46;;;;;;;30.27;21.33;;;;;;;;;;5029863;28;20429;-81
2022/04/26 07:14:12;;;;;;;26.83;21.03;;;;;;;;;;5028115;28;20434;-80
2022/04/26 07:16:39;;;;;;;31.50;24.30;;;;;;;;;;5030375;28;20836;-80
2022/04/26 07:19:05;;;;;;;37.03;25.40;;;;;;;;;;5032918;28;20437;-81
2022/04/26 07:21:31;;;;;;;40.97;31.10;;;;;;;;;;5027137;28;20445;-81
2022/04/26 07:23:57;;;;;;;44.20;32.00;;;;;;;;;;5024806;28;20527;-81
2022/04/26 07:26:23;;;;;;;45.83;29.63;;;;;;;;;;5027478;28;20478;-82
2022/04/26 07:28:49;;;;;;;45.93;30.27;;;;;;;;;;5029639;28;20890;-80
2022/04/26 07:31:15;;;;;;;41.63;30.60;;;;;;;;;;4674078;28;10000052;-80
2022/04/26 07:36:26;;;;;;;39.67;29.53;;;;;;;;;;5020457;28;20537;-82
2022/04/26 07:38:52;;;;;;;49.77;28.67;;;;;;;;;;5003510;28;20526;-81
2022/04/26 07:41:18;;;;;;;38.47;27.73;;;;;;;;;;5034587;28;21157;-81
2022/04/26 07:43:44;;;;;;;29.00;25.17;;;;;;;;;;5049262;28;21024;-80
2022/04/26 07:46:13;;;;;;;34.03;25.90;;;;;;;;;;5048258;28;20544;-82
2022/04/26 07:48:43;;;;;;;30.90;26.00;;;;;;;;;;5036718;28;20438;-80
2022/04/26 07:51:09;;;;;;;30.37;26.20;;;;;;;;;;5028575;28;20460;-81
2022/04/26 07:53:35;;;;;;;31.60;25.10;;;;;;;;;;5029086;28;20419;-80
2022/04/26 07:56:01;;;;;;;26.73;22.97;;;;;;;;;;5027301;28;20466;-79
2022/04/26 07:58:28;;;;;;;28.27;23.90;;;;;;;;;;5029369;28;20419;-78
2022/04/26 08:00:54;;;;;;;29.20;24.60;;;;;;;;;;5036150;28;20426;-78
2022/04/26 08:03:20;;;;;;;31.30;26.30;;;;;;;;;;5048278;28;20787;-79
2022/04/26 08:05:47;;;;;;;30.13;26.87;;;;;;;;;;5046149;28;20473;-78
2022/04/26 08:08:13;;;;;;;35.70;26.40;;;;;;;;;;5047973;28;20417;-79
2022/04/26 08:10:39;;;;;;;29.17;26.03;;;;;;;;;;5046931;28;20533;-76
2022/04/26 08:13:05;;;;;;;33.70;28.43;;;;;;;;;;5048614;28;20497;-76
2022/04/26 08:15:31;;;;;;;31.77;28.23;;;;;;;;;;5028548;28;20506;-78
2022/04/26 08:17:57;;;;;;;30.90;27.40;;;;;;;;;;5048213;28;20782;-78
2022/04/26 08:20:24;;;;;;;39.57;29.30;;;;;;;;;;5046757;28;20421;-79
2022/04/26 08:22:50;;;;;;;44.00;32.90;;;;;;;;;;5046751;28;20506;-78
2022/04/26 08:28:04;;;;;;;39.03;28.80;;;;;;;;;;5048153;28;20424;-78
2022/04/26 08:30:30;;;;;;;34.17;28.80;;;;;;;;;;5028034;28;20445;-77
2022/04/26 08:32:56;;;;;;;36.40;31.10;;;;;;;;;;5028104;28;20780;-78
2022/04/26 08:35:27;;;;;;;37.13;32.67;;;;;;;;;;5013039;28;20439;-77
2022/04/26 08:37:53;;;;;;;39.93;34.47;;;;;;;;;;5026542;28;20430;-78
2022/04/26 08:40:19;;;;;;;40.13;34.47;;;;;;;;;;5020643;28;20775;-77
2022/04/26 08:42:46;;;;;;;40.50;32.80;;;;;;;;;;4990020;28;20459;-78
2022/04/26 08:45:13;;;;;;;44.70;34.53;;;;;;;;;;5025199;28;20486;-78
2022/04/26 08:53:10;;;;;;;44.00;37.43;;;;;;;;;;5023343;28;20438;-78
2022/04/26 08:55:43;;;;;;;41.57;34.40;;;;;;;;;;5025464;28;20527;-78
2022/04/26 08:58:13;;;;;;;38.07;34.07;;;;;;;;;;5027619;28;20939;-77
2022/04/26 09:00:40;;;;;;;40.70;35.90;;;;;;;;;;5013639;28;20494;-79
2022/04/26 09:03:11;;;;;;;39.33;35.10;;;;;;;;;;5026780;28;20418;-77
2022/04/26 09:05:37;;;;;;;40.40;36.13;;;;;;;;;;5013962;28;20471;-77
2022/04/26 09:08:22;;;;;;;39.40;35.40;;;;;;;;;;5027273;28;20391;-77
2022/04/26 09:10:50;;;;;;;41.77;36.90;;;;;;;;;;4997573;28;20589;-76
2022/04/26 09:13:17;;;;;;;40.50;36.30;;;;;;;;;;5006998;28;20477;-77
2022/04/26 09:15:50;;;;;;;35.73;31.83;;;;;;;;;;5025633;28;21001;-79
2022/04/26 09:18:20;;;;;;;35.73;31.80;;;;;;;;;;5027064;28;20455;-78
2022/04/26 09:20:48;;;;;;;35.87;32.00;;;;;;;;;;5025233;28;20461;-79
2022/04/26 09:23:17;;;;;;;34.73;31.00;;;;;;;;;;5025210;28;20439;-76
2022/04/26 09:25:43;;;;;;;33.90;30.20;;;;;;;;;;5024984;28;20542;-79
2022/04/26 09:28:09;;;;;;;37.57;33.73;;;;;;;;;;5007041;28;20518;-78
2022/04/26 09:30:36;;;;;;;37.00;33.00;;;;;;;;;;5024406;28;20838;-78
2022/04/26 09:33:02;;;;;;;36.30;32.70;;;;;;;;;;5026225;28;20552;-78
2022/04/26 09:35:31;;;;;;;34.90;31.40;;;;;;;;;;5023992;28;20664;-80
2022/04/26 09:37:58;;;;;;;35.90;32.10;;;;;;;;;;5024964;28;20468;-76
2022/04/26 09:40:28;;;;;;;35.63;32.33;;;;;;;;;;5021230;28;20781;-78
2022/04/26 09:42:54;;;;;;;35.20;31.70;;;;;;;;;;5006179;28;20423;-78
2022/04/26 09:45:20;;;;;;;34.83;31.40;;;;;;;;;;4670712;28;9999742;-80
2022/04/26 09:47:48;;;;;;;33.03;29.90;;;;;;;;;;5023147;28;20187;-79
2022/04/26 09:50:15;;;;;;;32.73;29.30;;;;;;;;;;5020666;28;20447;-78
2022/04/26 09:52:41;;;;;;;33.23;29.83;;;;;;;;;;5023189;28;20434;-78
2022/04/26 09:55:08;;;;;;;32.87;29.63;;;;;;;;;;5014910;28;20912;-78
2022/04/26 09:57:35;;;;;;;31.37;28.63;;;;;;;;;;5002831;28;20446;-80
2022/04/26 10:00:03;;;;;;;32.07;28.93;;;;;;;;;;5005657;28;20505;-80
2022/04/26 10:02:32;;;;;;;28.50;25.57;;;;;;;;;;4994814;28;21210;-79
2022/04/26 10:05:06;;;;;;;27.07;24.47;;;;;;;;;;5011336;28;20518;-79
2022/04/26 10:07:41;;;;;;;28.00;25.17;;;;;;;;;;5013734;28;20824;-79
2022/04/26 10:10:09;;;;;;;22.77;20.73;;;;;;;;;;4980672;28;20427;-78
2022/04/26 10:12:36;;;;;;;23.37;20.90;;;;;;;;;;5002796;28;20466;-79
2022/04/26 10:15:02;;;;;;;22.93;20.50;;;;;;;;;;5012047;28;20529;-78
2022/04/26 10:17:32;;;;;;;22.03;19.70;;;;;;;;;;5007432;28;20445;-79
2022/04/26 10:20:00;;;;;;;23.80;21.50;;;;;;;;;;4995018;28;20462;-79
2022/04/26 10:22:45;;;;;;;23.27;21.37;;;;;;;;;;4989491;28;20435;-80
2022/04/26 10:25:12;;;;;;;22.83;20.83;;;;;;;;;;5013200;28;20482;-77
2022/04/26 10:27:39;;;;;;;22.57;20.37;;;;;;;;;;5018988;28;20430;-81
2022/04/26 10:30:05;;;;;;;24.50;22.30;;;;;;;;;;5012530;28;20469;-80
2022/04/26 10:32:32;;;;;;;22.53;20.20;;;;;;;;;;5012506;28;20427;-81
2022/04/26 10:35:18;;;;;;;20.70;18.80;;;;;;;;;;5010159;28;20836;-80
2022/04/26 10:37:44;;;;;;;28.90;25.90;;;;;;;;;;4993003;28;20961;-79
2022/04/26 10:40:12;;;;;;;24.00;19.93;;;;;;;;;;5007456;28;20431;-80
2022/04/26 10:42:38;;;;;;;19.83;18.00;;;;;;;;;;5002470;28;20423;-82
2022/04/26 10:45:09;;;;;;;19.10;17.30;;;;;;;;;;5019047;28;20488;-81
2022/04/26 10:47:35;;;;;;;19.93;18.03;;;;;;;;;;5010144;28;20798;-80
2022/04/26 10:50:02;;;;;;;19.97;18.00;;;;;;;;;;4998627;28;20481;-78
2022/04/26 10:52:32;;;;;;;19.00;17.43;;;;;;;;;;5001764;28;20427;-79
2022/04/26 10:54:59;;;;;;;20.53;18.50;;;;;;;;;;4992461;28;21007;-79
2022/04/26 10:57:27;;;;;;;20.37;18.47;;;;;;;;;;5011472;28;20449;-80
2022/04/26 10:59:54;;;;;;;20.60;18.77;;;;;;;;;;5007773;28;20484;-79
2022/04/26 11:02:21;;;;;;;19.77;18.13;;;;;;;;;;5016264;28;20472;-79
2022/04/26 11:04:55;;;;;;;21.87;19.97;;;;;;;;;;5010959;28;20512;-81
2022/04/26 11:07:30;;;;;;;20.70;18.83;;;;;;;;;;5004407;28;20712;-80
2022/04/26 11:10:00;;;;;;;20.67;18.97;;;;;;;;;;4990855;28;20460;-80
2022/04/26 11:12:30;;;;;;;21.60;19.73;;;;;;;;;;4998045;28;20526;-80
2022/04/26 11:14:59;;;;;;;20.90;18.90;;;;;;;;;;4994238;28;20517;-78
2022/04/26 11:17:27;;;;;;;23.00;20.47;;;;;;;;;;5016582;28;20557;-81
2022/04/26 11:19:54;;;;;;;20.53;18.87;;;;;;;;;;5007414;28;20445;-80
2022/04/26 11:22:23;;;;;;;21.27;19.63;;;;;;;;;;5006064;28;20442;-80
2022/04/26 11:30:31;;;;;;;22.80;20.63;;;;;;;;;;5007287;28;20466;-81
2022/04/26 11:33:01;;;;;;;21.40;19.37;;;;;;;;;;4993354;28;20955;-80
2022/04/26 11:35:28;;;;;;;20.70;18.90;;;;;;;;;;4994699;28;20964;-80
2022/04/26 11:37:55;;;;;;;22.30;19.63;;;;;;;;;;4996082;28;20484;-80
2022/04/26 11:40:22;;;;;;;20.17;18.60;;;;;;;;;;5000847;28;20496;-79
2022/04/26 11:42:49;;;;;;;21.17;19.33;;;;;;;;;;4995164;28;20851;-80
2022/04/26 11:47:49;;;;;;;24.40;22.40;;;;;;;;;;5003422;28;20491;-79
2022/04/26 11:50:18;;;;;;;25.00;22.90;;;;;;;;;;5003528;28;20490;-74
2022/04/26 11:52:45;;;;;;;24.87;22.47;;;;;;;;;;5005295;28;20419;-81
2022/04/26 11:55:38;;;;;;;25.87;23.60;;;;;;;;;;5003255;28;20844;-80
2022/04/26 11:58:12;;;;;;;24.77;22.20;;;;;;;;;;5004153;28;20455;-81
2022/04/26 12:00:49;;;;;;;24.90;22.47;;;;;;;;;;4999201;28;20442;-81
2022/04/26 12:03:16;;;;;;;25.17;23.10;;;;;;;;;;5011370;28;20876;-78
2022/04/26 12:05:42;;;;;;;30.80;22.87;;;;;;;;;;4990686;28;20475;-78
2022/04/26 12:08:09;;;;;;;27.70;24.80;;;;;;;;;;4990633;28;20450;-82
2022/04/26 12:10:36;;;;;;;27.13;24.30;;;;;;;;;;5001199;28;20497;-80
2022/04/26 12:13:03;;;;;;;29.03;26.03;;;;;;;;;;5002882;28;21056;-80
2022/04/26 12:15:38;;;;;;;29.87;26.97;;;;;;;;;;5007680;28;20543;-80
2022/04/26 12:18:04;;;;;;;30.40;27.20;;;;;;;;;;4999152;28;20505;-78
2022/04/26 12:20:30;;;;;;;31.20;28.10;;;;;;;;;;4988846;28;20432;-80
2022/04/26 12:22:57;;;;;;;31.00;28.07;;;;;;;;;;5010536;28;20879;-79
2022/04/26 12:25:23;;;;;;;30.63;27.50;;;;;;;;;;4989335;28;20707;-78
2022/04/26 12:28:08;;;;;;;34.03;30.23;;;;;;;;;;4993798;28;20419;-80
2022/04/26 12:30:37;;;;;;;33.33;30.00;;;;;;;;;;5005872;28;20462;-81
2022/04/26 12:33:04;;;;;;;31.17;28.27;;;;;;;;;;4990674;28;20776;-82
2022/04/26 12:35:31;;;;;;;29.57;26.67;;;;;;;;;;5026803;28;20496;-80
2022/04/26 12:38:04;;;;;;;32.87;29.43;;;;;;;;;;4995287;28;20514;-80
2022/04/26 12:40:30;;;;;;;33.03;29.50;;;;;;;;;;4998998;28;20449;-81
2022/04/26 12:42:57;;;;;;;29.23;26.63;;;;;;;;;;4989146;28;20417;-79
2022/04/26 12:45:23;;;;;;;29.70;26.80;;;;;;;;;;5024887;28;20918;-79
2022/04/26 12:50:50;;;;;;;24.60;22.37;;;;;;;;;;5023009;28;20937;-80
2022/04/26 12:53:22;;;;;;;27.63;24.60;;;;;;;;;;5030365;28;20442;-82
2022/04/26 12:55:51;;;;;;;24.30;22.20;;;;;;;;;;5018743;28;20959;-81
2022/04/26 12:58:18;;;;;;;31.50;23.00;;;;;;;;;;5011814;28;20445;-81
2022/04/26 13:00:46;;;;;;;25.50;23.30;;;;;;;;;;5034794;28;20618;-82
2022/04/26 13:03:14;;;;;;;25.93;22.93;;;;;;;;;;4684651;28;9999945;-80
2022/04/26 13:06:04;;;;;;;25.77;23.47;;;;;;;;;;5034763;28;20218;-81
2022/04/26 13:08:30;;;;;;;28.13;25.53;;;;;;;;;;5028240;28;20465;-80
2022/04/26 13:10:56;;;;;;;24.97;22.80;;;;;;;;;;5031002;28;20799;-82
2022/04/26 13:13:23;;;;;;;26.20;23.80;;;;;;;;;;5017993;28;20446;-81
2022/04/26 13:15:49;;;;;;;29.93;27.20;;;;;;;;;;5019603;28;20476;-81
2022/04/26 13:18:18;;;;;;;26.77;24.43;;;;;;;;;;5029224;28;20533;-81
2022/04/26 13:20:47;;;;;;;27.47;24.83;;;;;;;;;;5013314;28;20798;-81
2022/04/26 13:23:14;;;;;;;24.13;22.13;;;;;;;;;;5008069;28;20576;-80
2022/04/26 13:25:40;;;;;;;26.83;23.90;;;;;;;;;;5027685;28;20470;-81
2022/04/26 13:28:12;;;;;;;24.67;22.17;;;;;;;;;;5008704;28;20875;-82
2022/04/26 13:30:38;;;;;;;22.67;20.37;;;;;;;;;;5034103;28;20931;-80
2022/04/26 13:33:04;;;;;;;23.23;21.17;;;;;;;;;;5009688;28;20445;-81
2022/04/26 13:35:31;;;;;;;23.50;21.43;;;;;;;;;;5027769;28;20430;-81
2022/04/26 13:38:00;;;;;;;23.17;21.23;;;;;;;;;;5027542;28;20442;-82
2022/04/26 13:40:26;;;;;;;21.97;20.20;;;;;;;;;;5035720;28;20438;-82
2022/04/26 13:42:52;;;;;;;20.67;18.90;;;;;;;;;;5012513;28;20430;-82
2022/04/26 13:45:20;;;;;;;21.13;19.47;;;;;;;;;;5018835;28;21032;-82
2022/04/26 13:47:46;;;;;;;21.17;19.37;;;;;;;;;;5029257;28;20516;-80
2022/04/26 13:50:12;;;;;;;20.67;19.07;;;;;;;;;;5032994;28;20444;-81
2022/04/26 13:52:42;;;;;;;21.43;19.57;;;;;;;;;;5006515;28;20457;-82
2022/04/26 13:55:08;;;;;;;19.00;17.40;;;;;;;;;;5014649;28;20831;-82
2022/04/26 13:57:34;;;;;;;17.63;16.43;;;;;;;;;;5023869;28;20457;-80
2022/04/26 14:00:01;;;;;;;20.03;18.23;;;;;;;;;;5026963;28;20407;-80
2022/04/26 14:02:27;;;;;;;19.13;17.43;;;;;;;;;;5004868;28;20430;-81
2022/04/26 14:04:53;;;;;;;18.70;17.10;;;;;;;;;;5026381;28;20498;-82
2022/04/26 14:07:19;;;;;;;21.60;18.43;;;;;;;;;;5026255;28;20449;-81
2022/04/26 14:09:45;;;;;;;18.67;17.23;;;;;;;;;;5011371;28;20421;-79
2022/04/26 14:12:14;;;;;;;18.30;16.70;;;;;;;;;;5010406;28;20430;-80
2022/04/26 14:22:54;;;;;;;19.73;18.13;;;;;;;;;;5031275;28;20506;-83
2022/04/26 14:25:21;;;;;;;19.07;17.27;;;;;;;;;;5015390;28;20822;-82
2022/04/26 14:28:08;;;;;;;27.57;24.83;;;;;;;;;;5010737;28;20419;-81
2022/04/26 14:30:34;;;;;;;24.60;22.13;;;;;;;;;;4996325;28;20461;-78
2022/04/26 14:33:03;;;;;;;25.13;22.67;;;;;;;;;;5015853;28;20406;-81
2022/04/26 14:35:34;;;;;;;24.10;21.60;;;;;;;;;;5032387;28;20423;-82
2022/04/26 14:38:04;;;;;;;25.20;22.80;;;;;;;;;;5015060;28;20414;-82
2022/04/26 14:40:30;;;;;;;23.63;21.43;;;;;;;;;;5028109;28;20979;-81
2022/04/26 14:42:56;;;;;;;24.63;22.23;;;;;;;;;;5010654;28;20407;-81
2022/04/26 14:45:23;;;;;;;25.33;22.93;;;;;;;;;;5026257;28;20462;-81
2022/04/26 14:47:52;;;;;;;25.40;23.20;;;;;;;;;;5030349;28;20504;-82
2022/04/26 14:50:20;;;;;;;24.30;22.17;;;;;;;;;;4993609;28;20446;-83
2022/04/26 14:52:55;;;;;;;23.00;20.80;;;;;;;;;;5013034;28;20429;-81
2022/04/26 14:55:50;;;;;;;23.23;20.90;;;;;;;;;;5027580;28;20439;-83
2022/04/26 14:58:19;;;;;;;25.20;22.53;;;;;;;;;;5029924;28;20469;-82
2022/04/26 15:00:45;;;;;;;23.37;21.30;;;;;;;;;;5018423;28;20625;-82
2022/04/26 15:03:12;;;;;;;22.87;20.90;;;;;;;;;;5028950;28;20589;-83
2022/04/26 15:05:44;;;;;;;22.07;20.07;;;;;;;;;;5025905;28;20497;-81
2022/04/26 15:11:18;;;;;;;22.80;20.83;;;;;;;;;;5033930;28;20443;-82
2022/04/26 15:16:39;;;;;;;24.60;22.50;;;;;;;;;;5040084;28;20543;-80
2022/04/26 15:19:09;;;;;;;23.53;21.60;;;;;;;;;;5008396;28;20433;-80
2022/04/26 15:21:37;;;;;;;26.03;23.50;;;;;;;;;;5003503;28;20433;-82
2022/04/26 15:24:07;;;;;;;24.83;22.60;;;;;;;;;;5015664;28;20421;-81
2022/04/26 15:26:36;;;;;;;23.80;20.60;;;;;;;;;;5022750;28;20482;-81
2022/04/26 15:29:08;;;;;;;23.20;21.13;;;;;;;;;;5005627;28;20465;-81
2022/04/26 15:31:43;;;;;;;24.30;21.80;;;;;;;;;;5028898;28;20557;-81
2022/04/26 15:34:09;;;;;;;23.23;20.90;;;;;;;;;;5026728;28;20926;-82
2022/04/26 15:36:36;;;;;;;22.20;20.10;;;;;;;;;;5026854;28;20517;-80
2022/04/26 15:39:10;;;;;;;24.27;21.77;;;;;;;;;;5032823;28;20457;-79
2022/04/26 15:41:40;;;;;;;24.13;21.60;;;;;;;;;;5029783;28;20509;-78
2022/04/26 15:44:29;;;;;;;22.83;20.77;;;;;;;;;;5006857;28;20422;-79
2022/04/26 15:46:58;;;;;;;24.73;22.70;;;;;;;;;;5029728;28;20473;-79
2022/04/26 15:49:25;;;;;;;24.73;22.13;;;;;;;;;;5030643;28;21186;-79
2022/04/26 15:51:57;;;;;;;24.73;22.30;;;;;;;;;;5027588;28;20450;-80
2022/04/26 15:54:43;;;;;;;24.13;22.03;;;;;;;;;;5004778;28;20450;-79
2022/04/26 15:57:10;;;;;;;25.10;22.90;;;;;;;;;;5015276;28;20430;-80
2022/04/26 15:59:46;;;;;;;22.10;20.27;;;;;;;;;;5030718;28;20458;-78
2022/04/26 16:02:19;;;;;;;24.63;22.00;;;;;;;;;;5010932;28;21006;-81
2022/04/26 16:04:47;;;;;;;24.70;22.30;;;;;;;;;;5001249;28;20513;-81
2022/04/26 16:07:18;;;;;;;25.73;22.20;;;;;;;;;;5033303;28;20446;-80
2022/04/26 16:20:46;;;;;;;29.00;26.17;;;;;;;;;;5023140;28;20825;-81
2022/04/26 16:23:29;;;;;;;28.40;25.50;;;;;;;;;;5032244;28;20483;-81
2022/04/26 16:26:03;;;;;;;25.33;22.20;;;;;;;;;;5025055;28;20818;-81
2022/04/26 16:28:55;;;;;;;27.37;24.63;;;;;;;;;;5003070;28;20436;-81
2022/04/26 16:31:48;;;;;;;25.83;23.30;;;;;;;;;;5001893;23;20487;-83
2022/04/26 16:34:17;;;;;;;22.47;20.47;;;;;;;;;;5016389;28;20770;-83
2022/04/26 16:36:45;;;;;;;20.07;18.27;;;;;;;;;;5026556;28;20600;-80
2022/04/26 16:39:12;;;;;;;22.67;19.40;;;;;;;;;;5023033;28;20470;-83
2022/04/26 16:41:51;;;;;;;19.57;17.67;;;;;;;;;;5024255;28;20426;-83
2022/04/26 16:44:23;;;;;;;19.33;17.70;;;;;;;;;;5013092;28;20486;-83
2022/04/26 16:49:23;;;;;;;17.70;16.10;;;;;;;;;;5009009;28;20498;-80
2022/04/26 16:51:49;;;;;;;17.03;15.73;;;;;;;;;;5029049;28;20855;-81
2022/04/26 16:54:18;;;;;;;17.80;16.30;;;;;;;;;;5007821;28;20601;-82
2022/04/26 16:56:45;;;;;;;19.60;17.83;;;;;;;;;;5025755;28;20517;-79
2022/04/26 16:59:16;;;;;;;18.97;17.50;;;;;;;;;;5017815;28;20446;-81
2022/04/26 17:01:43;;;;;;;18.73;17.03;;;;;;;;;;5008766;28;20766;-83
2022/04/26 17:04:12;;;;;;;25.53;18.63;;;;;;;;;;5008023;28;20537;-82
2022/04/26 17:06:39;;;;;;;21.07;19.07;;;;;;;;;;5009425;28;20435;-81
2022/04/26 17:09:20;;;;;;;20.23;18.13;;;;;;;;;;5026553;28;20442;-81
2022/04/26 17:11:49;;;;;;;18.53;16.83;;;;;;;;;;5028283;28;20460;-80
2022/04/26 17:14:17;;;;;;;18.10;16.50;;;;;;;;;;4996368;28;20446;-82
2022/04/26 17:17:00;;;;;;;19.60;17.87;;;;;;;;;;5015905;28;20434;-82
2022/04/26 17:19:35;;;;;;;20.77;19.07;;;;;;;;;;5006221;28;20423;-82
2022/04/26 17:22:08;;;;;;;20.27;18.47;;;;;;;;;;5009388;28;20426;-82
2022/04/26 17:27:19;;;;;;;20.47;18.67;;;;;;;;;;5018037;28;20481;-82
2022/04/26 17:29:45;;;;;;;21.63;19.53;;;;;;;;;;5014193;28;20439;-81
2022/04/26 17:32:14;;;;;;;20.40;18.27;;;;;;;;;;5021124;28;20509;-82
2022/04/26 17:34:40;;;;;;;21.03;19.17;;;;;;;;;;5005075;28;20443;-80
2022/04/26 17:37:06;;;;;;;20.00;17.97;;;;;;;;;;5008802;28;20489;-81
2022/04/26 17:39:32;;;;;;;19.57;17.77;;;;;;;;;;5008885;28;20468;-80
2022/04/26 17:41:58;;;;;;;19.00;17.33;;;;;;;;;;5027527;28;20419;-82
2022/04/26 17:44:24;;;;;;;18.93;17.27;;;;;;;;;;5015126;28;20419;-80
2022/04/26 17:46:51;;;;;;;17.27;15.57;;;;;;;;;;5001633;28;20435;-82
2022/04/26 17:49:17;;;;;;;19.20;17.50;;;;;;;;;;5011192;28;20470;-81
2022/04/26 17:51:43;;;;;;;18.07;16.67;;;;;;;;;;5016625;28;20431;-82
2022/04/26 17:56:54;;;;;;;17.20;15.67;;;;;;;;;;5011184;28;20837;-80
2022/04/26 17:59:21;;;;;;;16.77;15.30;;;;;;;;;;5009025;28;20442;-81
2022/04/26 18:01:47;;;;;;;19.47;17.67;;;;;;;;;;5010559;28;20480;-82
2022/04/26 18:04:13;;;;;;;17.30;15.80;;;;;;;;;;5016496;28;21078;-80
2022/04/26 18:06:49;;;;;;;16.30;14.90;;;;;;;;;;5020447;28;20487;-81
2022/04/26 18:09:15;;;;;;;18.97;17.20;;;;;;;;;;5015835;28;20457;-82
2022/04/26 18:11:42;;;;;;;18.47;16.53;;;;;;;;;;5022621;28;20609;-81
2022/04/26 18:14:08;;;;;;;16.70;15.20;;;;;;;;;;5003190;28;20438;-81
2022/04/26 18:16:34;;;;;;;16.80;15.30;;;;;;;;;;5020355;28;20426;-81
2022/04/26 18:19:04;;;;;;;17.37;15.93;;;;;;;;;;5005466;28;20446;-81
2022/04/26 18:21:33;;;;;;;16.40;14.77;;;;;;;;;;5021512;28;20430;-82
2022/04/26 18:23:59;;;;;;;18.37;16.80;;;;;;;;;;4995892;28;20646;-81
2022/04/26 18:26:26;;;;;;;17.60;16.10;;;;;;;;;;4996225;28;20585;-81
2022/04/26 18:28:53;;;;;;;19.57;17.70;;;;;;;;;;5022233;28;20766;-81
2022/04/26 18:31:20;;;;;;;18.10;16.33;;;;;;;;;;5018722;28;20446;-82
2022/04/26 18:33:46;;;;;;;18.30;16.53;;;;;;;;;;5006665;28;20449;-82
2022/04/26 18:36:13;;;;;;;18.43;16.63;;;;;;;;;;5004954;28;20943;-80
2022/04/26 18:38:41;;;;;;;17.57;16.20;;;;;;;;;;5006090;28;20473;-81
2022/04/26 18:41:10;;;;;;;19.73;18.03;;;;;;;;;;4991245;28;20470;-81
2022/04/26 18:43:43;;;;;;;21.83;19.90;;;;;;;;;;5025610;28;20436;-81
2022/04/26 18:46:19;;;;;;;;;;;;;;;;;;;;;
2022/04/26 18:48:58;;;;;;;21.27;19.40;;;;;;;;;;5033978;22;20842;-81
2022/04/26 18:51:32;;;;;;;21.63;19.73;;;;;;;;;;5017317;28;20524;-80
2022/04/26 18:53:58;;;;;;;21.17;19.23;;;;;;;;;;5040767;28;21173;-81
2022/04/26 18:56:24;;;;;;;21.53;19.43;;;;;;;;;;5011365;28;20657;-81
2022/04/26 18:58:50;;;;;;;25.57;21.03;;;;;;;;;;5021858;28;20449;-81
2022/04/26 19:01:17;;;;;;;23.77;21.37;;;;;;;;;;5039053;28;20438;-81